createdAt,value
2024-01-25T00:01:48.744Z,0.28
2024-01-25T00:04:15.636Z,0.30
2024-01-25T00:06:42.437Z,0.25
2024-01-25T00:09:09.516Z,0.20
2024-01-25T00:11:36.751Z,0.18
2024-01-25T00:14:04.208Z,0.18
2024-01-25T00:16:30.958Z,0.20
2024-01-25T00:18:57.786Z,0.20
2024-01-25T00:21:24.567Z,0.15
2024-01-25T00:23:51.206Z,0.14
2024-01-25T00:26:17.865Z,0.13
2024-01-25T00:28:44.609Z,0.13
2024-01-25T00:31:11.295Z,0.14
2024-01-25T00:33:38.422Z,0.14
2024-01-25T00:36:05.574Z,0.14
2024-01-25T00:38:32.524Z,0.13
2024-01-25T00:40:59.334Z,0.15
2024-01-25T00:43:26.202Z,-0.28
2024-01-25T00:45:55.846Z,0.12
2024-01-25T00:48:22.791Z,0.14
2024-01-25T00:50:49.550Z,0.13
2024-01-25T00:53:16.390Z,0.08
2024-01-25T00:55:43.098Z,-0.14
2024-01-25T00:58:09.996Z,0.05
2024-01-25T01:00:36.978Z,0.04
2024-01-25T01:03:05.315Z,0.04
2024-01-25T01:05:32.408Z,0.01
2024-01-25T01:07:59.461Z,-0.02
2024-01-25T01:10:26.378Z,0.04
2024-01-25T01:12:54.645Z,0.06
2024-01-25T01:15:21.334Z,0.06
2024-01-25T01:17:48.080Z,0.06
2024-01-25T01:20:14.977Z,0.06
2024-01-25T01:22:41.728Z,0.03
2024-01-25T01:25:09.017Z,0.05
2024-01-25T01:27:35.771Z,0.05
2024-01-25T01:30:02.595Z,0.05
2024-01-25T01:32:29.474Z,0.04
2024-01-25T01:34:56.613Z,0.04
2024-01-25T01:37:23.452Z,0.03
2024-01-25T01:39:50.187Z,0.03
2024-01-25T01:42:18.389Z,0.02
2024-01-25T01:44:45.333Z,0.03
2024-01-25T01:47:12.351Z,0.06
2024-01-25T01:49:39.626Z,-0.01
2024-01-25T01:52:07.767Z,-0.01
2024-01-25T01:54:34.628Z,0.01
2024-01-25T01:57:01.533Z,0.00
2024-01-25T01:59:29.762Z,0.03
2024-01-25T02:01:56.462Z,0.06
2024-01-25T02:04:23.278Z,0.05
2024-01-25T02:06:50.179Z,0.05
2024-01-25T02:09:17.019Z,0.04
2024-01-25T02:11:43.684Z,0.03
2024-01-25T02:14:12.867Z,0.00
2024-01-25T02:16:39.878Z,0.02
2024-01-25T02:19:06.699Z,-0.02
2024-01-25T02:21:33.414Z,-0.05
2024-01-25T02:24:00.786Z,-0.07
2024-01-25T02:26:27.598Z,-0.02
2024-01-25T02:28:55.571Z,0.02
2024-01-25T02:31:22.555Z,0.04
2024-01-25T02:33:49.457Z,-0.03
2024-01-25T02:36:16.919Z,-0.08
2024-01-25T02:38:43.542Z,-0.06
2024-01-25T02:41:10.183Z,-0.06
2024-01-25T02:43:36.858Z,-0.10
2024-01-25T02:46:03.551Z,-0.16
2024-01-25T02:48:30.717Z,-0.27
2024-01-25T02:50:57.424Z,-0.36
2024-01-25T02:53:24.041Z,-0.46
2024-01-25T02:55:50.716Z,-0.53
2024-01-25T02:58:18.141Z,-0.65
2024-01-25T03:00:45.052Z,-0.73
2024-01-25T03:03:12.076Z,-0.82
2024-01-25T03:05:38.857Z,-0.96
2024-01-25T03:08:05.792Z,-0.94
2024-01-25T03:10:32.634Z,-0.91
2024-01-25T03:12:59.304Z,-0.88
2024-01-25T03:15:26.003Z,-0.98
2024-01-25T03:17:52.752Z,-1.09
2024-01-25T03:20:19.547Z,-1.10
2024-01-25T03:22:46.420Z,-1.17
2024-01-25T03:25:13.043Z,-1.16
2024-01-25T03:27:39.715Z,-1.16
2024-01-25T03:30:07.411Z,-1.23
2024-01-25T03:32:34.867Z,-1.26
2024-01-25T03:35:01.904Z,-1.31
2024-01-25T03:37:28.841Z,-1.30
2024-01-25T03:39:55.564Z,-1.34
2024-01-25T03:42:22.367Z,-1.38
2024-01-25T03:44:49.298Z,-1.41
2024-01-25T03:47:15.970Z,-1.39
2024-01-25T03:49:42.758Z,-1.42
2024-01-25T03:52:09.583Z,-1.52
2024-01-25T03:54:36.293Z,-1.55
2024-01-25T03:57:03.169Z,-1.55
2024-01-25T03:59:29.942Z,-1.53
2024-01-25T04:01:56.665Z,-1.48
2024-01-25T04:04:23.679Z,-1.51
2024-01-25T04:06:51.110Z,-1.49
2024-01-25T04:09:17.915Z,-1.54
2024-01-25T04:11:44.576Z,-1.62
2024-01-25T04:14:11.158Z,-1.77
2024-01-25T04:16:38.021Z,-1.51
2024-01-25T04:19:04.753Z,-1.51
2024-01-25T04:21:31.717Z,-1.56
2024-01-25T04:23:58.427Z,-1.60
2024-01-25T04:26:25.097Z,-1.64
2024-01-25T04:28:51.801Z,-1.70
2024-01-25T04:31:18.664Z,-1.80
2024-01-25T04:33:48.732Z,-1.77
2024-01-25T04:36:16.177Z,-1.73
2024-01-25T04:38:42.763Z,-1.73
2024-01-25T04:41:09.439Z,-1.69
2024-01-25T04:43:37.742Z,-1.68
2024-01-25T04:46:04.885Z,-1.60
2024-01-25T04:48:32.482Z,-1.53
2024-01-25T04:51:00.034Z,-1.58
2024-01-25T04:53:26.687Z,-1.64
2024-01-25T04:55:54.546Z,-1.70
2024-01-25T04:58:21.181Z,-1.82
2024-01-25T05:00:48.440Z,-1.85
2024-01-25T05:03:15.347Z,-1.85
2024-01-25T05:05:42.025Z,-1.80
2024-01-25T05:08:09.000Z,-1.77
2024-01-25T05:10:35.776Z,-1.69
2024-01-25T05:13:02.465Z,-1.71
2024-01-25T05:15:29.147Z,-1.80
2024-01-25T05:17:55.911Z,-1.81
2024-01-25T05:20:23.371Z,-1.83
2024-01-25T05:22:50.298Z,-1.94
2024-01-25T05:25:17.169Z,-1.93
2024-01-25T05:27:43.914Z,-1.98
2024-01-25T05:30:11.325Z,-2.00
2024-01-25T05:32:38.156Z,-1.90
2024-01-25T05:35:06.051Z,-1.86
2024-01-25T05:37:33.561Z,-1.82
2024-01-25T05:40:00.335Z,-1.83
2024-01-25T05:42:27.012Z,-1.96
2024-01-25T05:44:53.703Z,-2.00
2024-01-25T05:47:20.303Z,-2.05
2024-01-25T05:49:47.099Z,-2.14
2024-01-25T05:52:14.476Z,-2.19
2024-01-25T05:54:41.222Z,-2.30
2024-01-25T05:57:07.884Z,-2.27
2024-01-25T05:59:34.505Z,-2.29
2024-01-25T06:02:01.356Z,-2.32
2024-01-25T06:04:28.303Z,-2.36
2024-01-25T06:06:55.454Z,-2.43
2024-01-25T06:09:22.214Z,-2.49
2024-01-25T06:11:48.834Z,-2.56
2024-01-25T06:14:15.451Z,-2.64
2024-01-25T06:16:42.193Z,-2.68
2024-01-25T06:19:09.264Z,-2.75
2024-01-25T06:21:36.840Z,-2.85
2024-01-25T06:24:03.619Z,-2.88
2024-01-25T06:26:30.350Z,-2.85
2024-01-25T06:28:57.988Z,-2.84
2024-01-25T06:31:27.911Z,-2.95
2024-01-25T06:33:54.905Z,-2.93
2024-01-25T06:36:21.700Z,-2.96
2024-01-25T06:38:48.438Z,-2.96
2024-01-25T06:41:16.136Z,-3.00
2024-01-25T06:43:42.952Z,-2.96
2024-01-25T06:46:09.645Z,-2.98
2024-01-25T06:48:37.253Z,-2.98
2024-01-25T06:51:04.020Z,-2.85
2024-01-25T06:53:30.885Z,-2.89
2024-01-25T06:55:57.502Z,-2.79
2024-01-25T06:58:24.909Z,-2.86
2024-01-25T07:00:52.117Z,-2.91
2024-01-25T07:03:19.936Z,-2.98
2024-01-25T07:05:47.124Z,-2.91
2024-01-25T07:08:14.674Z,-2.83
2024-01-25T07:10:41.602Z,-2.85
2024-01-25T07:13:08.428Z,-2.91
2024-01-25T07:15:35.400Z,-2.93
2024-01-25T07:18:02.344Z,-3.03
2024-01-25T07:20:29.298Z,-3.06
2024-01-25T07:22:56.321Z,-3.03
2024-01-25T07:25:23.081Z,-2.94
2024-01-25T07:27:50.747Z,-2.93
2024-01-25T07:30:17.963Z,-2.93
2024-01-25T07:32:47.055Z,-2.95
2024-01-25T07:35:14.309Z,-3.01
2024-01-25T07:37:43.799Z,-2.99
2024-01-25T07:40:10.783Z,-3.05
2024-01-25T07:42:37.545Z,-3.08
2024-01-25T07:45:04.489Z,-3.06
2024-01-25T07:47:31.214Z,-3.07
2024-01-25T07:49:58.504Z,-3.10
2024-01-25T07:52:27.498Z,-3.16
2024-01-25T07:54:54.860Z,-3.16
2024-01-25T07:57:21.652Z,-3.16
2024-01-25T07:59:48.251Z,-3.18
2024-01-25T08:02:18.543Z,-3.23
2024-01-25T08:04:47.065Z,-3.21
2024-01-25T08:07:13.885Z,-3.25
2024-01-25T08:09:40.675Z,-3.20
2024-01-25T08:12:07.478Z,-3.23
2024-01-25T08:14:34.155Z,-3.30
2024-01-25T08:17:01.400Z,-3.29
2024-01-25T08:19:28.387Z,-3.27
2024-01-25T08:21:55.415Z,-3.20
2024-01-25T08:24:22.146Z,-3.09
2024-01-25T08:26:48.775Z,-2.99
2024-01-25T08:29:15.428Z,-2.83
2024-01-25T08:31:42.241Z,-2.67
2024-01-25T08:34:09.167Z,-2.53
2024-01-25T08:36:35.980Z,-2.35
2024-01-25T08:39:03.033Z,-2.20
2024-01-25T08:41:33.038Z,-2.10
2024-01-25T08:44:19.058Z,-2.02
2024-01-25T08:47:04.640Z,-1.91
2024-01-25T08:49:31.408Z,-1.85
2024-01-25T08:51:58.203Z,-1.91
2024-01-25T08:54:24.951Z,-1.85
2024-01-25T08:56:51.630Z,-1.75
2024-01-25T08:59:18.874Z,-1.75
2024-01-25T09:01:45.634Z,-1.77
2024-01-25T09:04:12.537Z,-1.87
2024-01-25T09:06:39.285Z,-1.97
2024-01-25T09:09:06.561Z,-2.03
2024-01-25T09:11:33.163Z,-2.09
2024-01-25T09:13:59.837Z,-2.17
2024-01-25T09:16:26.731Z,-2.17
2024-01-25T09:18:53.793Z,-2.23
2024-01-25T09:21:20.541Z,-2.28
2024-01-25T09:23:47.185Z,-2.23
2024-01-25T09:26:14.073Z,-2.26
2024-01-25T09:28:40.934Z,-2.26
2024-01-25T09:31:07.882Z,-2.27
2024-01-25T09:33:35.219Z,-2.24
2024-01-25T09:36:03.235Z,-2.15
2024-01-25T09:38:30.420Z,-2.13
2024-01-25T09:40:57.297Z,-2.12
2024-01-25T09:43:24.143Z,-2.10
2024-01-25T09:45:53.903Z,-2.13
2024-01-25T09:48:21.402Z,-2.17
2024-01-25T09:50:48.830Z,-2.10
2024-01-25T09:53:23.736Z,-2.08
2024-01-25T09:56:04.785Z,-2.05
2024-01-25T09:58:38.987Z,-2.05
2024-01-25T10:01:08.750Z,-2.04
2024-01-25T10:03:36.302Z,-2.08
2024-01-25T10:06:06.190Z,-2.08
2024-01-25T10:08:33.329Z,-2.10
2024-01-25T10:11:00.166Z,-2.16
2024-01-25T10:13:27.928Z,-2.17
2024-01-25T10:15:55.483Z,-2.18
2024-01-25T10:18:29.904Z,-2.17
2024-01-25T10:20:59.076Z,-2.15
2024-01-25T10:23:27.130Z,-2.13
2024-01-25T10:25:54.558Z,-2.13
2024-01-25T10:28:21.521Z,-2.08
2024-01-25T10:30:48.661Z,-2.06
2024-01-25T10:33:16.456Z,-1.99
2024-01-25T10:35:46.562Z,-1.98
2024-01-25T10:38:13.553Z,-1.96
2024-01-25T10:40:42.825Z,-1.92
2024-01-25T10:43:11.165Z,-1.91
2024-01-25T10:45:38.183Z,-1.88
2024-01-25T10:48:05.786Z,-1.86
2024-01-25T10:50:32.661Z,-1.82
2024-01-25T10:53:00.207Z,-1.83
2024-01-25T10:55:27.511Z,-1.82
2024-01-25T10:57:54.515Z,-1.75
2024-01-25T11:00:22.091Z,-1.70
2024-01-25T11:02:50.736Z,-1.64
2024-01-25T11:05:19.399Z,-1.59
2024-01-25T11:07:50.040Z,-1.56
2024-01-25T11:10:23.436Z,-1.50
2024-01-25T11:12:56.915Z,-1.46
2024-01-25T11:15:27.351Z,-1.40
2024-01-25T11:17:55.240Z,-1.33
2024-01-25T11:20:31.011Z,-1.28
2024-01-25T11:22:59.078Z,-1.27
2024-01-25T11:25:27.854Z,-1.22
2024-01-25T11:27:55.195Z,-1.09
2024-01-25T11:30:21.926Z,-0.91
2024-01-25T11:32:49.100Z,-0.80
2024-01-25T11:35:18.216Z,-0.68
2024-01-25T11:37:48.479Z,-0.46
2024-01-25T11:40:16.284Z,-0.26
2024-01-25T11:42:44.446Z,-0.01
2024-01-25T11:45:12.111Z,0.26
2024-01-25T11:47:39.816Z,0.57
2024-01-25T11:50:08.203Z,0.67
2024-01-25T11:52:35.507Z,0.75
2024-01-25T11:55:06.260Z,0.79
2024-01-25T11:57:42.217Z,0.83
2024-01-25T12:00:14.603Z,0.87
2024-01-25T12:02:42.000Z,0.84
2024-01-25T12:05:11.165Z,0.76
2024-01-25T12:07:40.069Z,0.74
2024-01-25T12:10:07.935Z,0.71
2024-01-25T12:12:37.480Z,0.70
2024-01-25T12:15:05.890Z,0.66
2024-01-25T12:17:33.575Z,0.66
2024-01-25T12:20:00.963Z,0.74
2024-01-25T12:22:28.491Z,0.74
2024-01-25T12:25:00.315Z,0.78
2024-01-25T12:27:28.373Z,0.84
2024-01-25T12:29:55.031Z,0.89
2024-01-25T12:32:22.051Z,0.95
2024-01-25T12:34:56.093Z,1.01
2024-01-25T12:37:23.075Z,1.06
2024-01-25T12:39:51.198Z,1.08
2024-01-25T12:42:19.021Z,1.11
2024-01-25T12:44:46.816Z,1.17
2024-01-25T12:47:14.395Z,1.19
2024-01-25T12:49:44.781Z,1.21
2024-01-25T12:52:16.079Z,1.29
2024-01-25T12:54:43.020Z,1.41
2024-01-25T12:57:09.715Z,1.47
2024-01-25T12:59:37.283Z,1.56
2024-01-25T13:02:04.722Z,1.60
2024-01-25T13:04:31.554Z,1.67
2024-01-25T13:06:59.194Z,1.68
2024-01-25T13:09:26.303Z,1.67
2024-01-25T13:11:55.629Z,1.71
2024-01-25T13:14:22.281Z,1.68
2024-01-25T13:16:49.001Z,1.67
2024-01-25T13:19:15.797Z,1.65
2024-01-25T13:21:42.581Z,1.62
2024-01-25T13:24:09.290Z,1.64
2024-01-25T13:26:37.036Z,1.61
2024-01-25T13:29:03.952Z,1.55
2024-01-25T13:31:30.665Z,1.52
2024-01-25T13:33:57.486Z,1.50
2024-01-25T13:36:24.235Z,1.44
2024-01-25T13:38:50.894Z,1.37
2024-01-25T13:41:17.756Z,1.30
2024-01-25T13:43:44.497Z,1.24
2024-01-25T13:46:11.210Z,-0.71
2024-01-25T13:48:37.997Z,1.09
2024-01-25T13:51:04.822Z,0.98
2024-01-25T13:53:31.497Z,0.86
2024-01-25T13:55:58.208Z,0.79
2024-01-25T13:58:24.897Z,0.67
2024-01-25T14:00:51.624Z,0.57
2024-01-25T14:03:18.694Z,0.52
2024-01-25T14:05:45.519Z,0.43
2024-01-25T14:08:12.426Z,0.40
2024-01-25T14:10:39.257Z,0.36
2024-01-25T14:13:07.198Z,0.33
2024-01-25T14:15:34.063Z,0.30
2024-01-25T14:18:01.916Z,0.29
2024-01-25T14:20:28.795Z,0.28
2024-01-25T14:22:55.610Z,0.34
2024-01-25T14:25:22.357Z,0.42
2024-01-25T14:27:50.185Z,0.48
2024-01-25T14:30:18.000Z,0.50
2024-01-25T14:32:45.692Z,0.48
2024-01-25T14:35:13.011Z,0.48
2024-01-25T14:37:39.783Z,0.48
2024-01-25T14:40:19.401Z,0.47
2024-01-25T14:42:54.308Z,0.51
2024-01-25T14:45:21.734Z,0.50
2024-01-25T14:47:48.361Z,0.43
2024-01-25T14:50:15.150Z,0.33
2024-01-25T14:52:41.864Z,0.23
2024-01-25T14:55:08.911Z,0.20
2024-01-25T14:57:38.101Z,0.07
2024-01-25T15:00:06.944Z,-0.03
2024-01-25T15:02:33.970Z,-0.14
2024-01-25T15:05:00.950Z,-0.23
2024-01-25T15:07:27.609Z,-0.18
2024-01-25T15:09:54.876Z,-0.27
2024-01-25T15:12:22.530Z,-0.45
2024-01-25T15:14:49.218Z,-0.52
2024-01-25T15:17:16.039Z,-0.57
2024-01-25T15:19:42.903Z,-0.62
2024-01-25T15:22:09.940Z,-0.60
2024-01-25T15:24:36.679Z,-0.64
2024-01-25T15:27:03.532Z,-0.67
2024-01-25T15:29:31.813Z,-0.88
2024-01-25T15:31:58.531Z,-0.77
2024-01-25T15:34:25.398Z,-0.87
2024-01-25T15:36:52.167Z,-0.93
2024-01-25T15:39:19.677Z,-0.96
2024-01-25T15:41:50.383Z,-1.09
2024-01-25T15:44:17.341Z,-1.19
2024-01-25T15:46:44.307Z,-1.19
2024-01-25T15:49:10.968Z,-1.23
2024-01-25T15:51:37.652Z,-1.29
2024-01-25T15:54:04.426Z,-1.27
2024-01-25T15:56:32.015Z,-1.26
2024-01-25T15:58:58.808Z,-1.20
2024-01-25T16:01:25.698Z,-1.12
2024-01-25T16:03:52.451Z,-1.13
2024-01-25T16:06:19.336Z,-1.21
2024-01-25T16:08:46.059Z,-1.26
2024-01-25T16:11:12.766Z,-1.32
2024-01-25T16:13:39.435Z,-1.36
2024-01-25T16:16:06.511Z,-1.40
2024-01-25T16:18:34.215Z,-1.46
2024-01-25T16:21:01.058Z,-1.49
2024-01-25T16:23:27.639Z,-1.57
2024-01-25T16:25:54.330Z,-1.54
2024-01-25T16:28:20.937Z,-1.57
2024-01-25T16:30:47.714Z,-1.64
2024-01-25T16:33:14.522Z,-1.73
2024-01-25T16:35:41.303Z,-1.77
2024-01-25T16:38:07.944Z,-1.84
2024-01-25T16:40:34.631Z,-1.92
2024-01-25T16:43:01.354Z,-1.95
2024-01-25T16:45:28.137Z,-1.97
2024-01-25T16:47:54.891Z,-1.98
2024-01-25T16:50:21.706Z,-1.89
2024-01-25T16:52:50.422Z,-1.91
2024-01-25T16:55:17.131Z,-1.92
2024-01-25T16:57:43.745Z,-1.84
2024-01-25T17:00:10.672Z,-1.87
2024-01-25T17:02:37.261Z,-1.89
2024-01-25T17:05:04.090Z,-1.93
2024-01-25T17:07:30.896Z,-1.99
2024-01-25T17:09:57.609Z,-2.05
2024-01-25T17:12:24.338Z,-2.09
2024-01-25T17:14:51.088Z,-2.15
2024-01-25T17:17:18.229Z,-2.14
2024-01-25T17:19:45.070Z,-2.19
2024-01-25T17:22:11.806Z,-2.26
2024-01-25T17:24:44.164Z,-2.30
2024-01-25T17:27:11.328Z,-2.53
2024-01-25T17:29:37.909Z,-2.36
2024-01-25T17:32:04.726Z,-2.34
2024-01-25T17:34:31.546Z,-2.35
2024-01-25T17:36:58.348Z,-2.40
2024-01-25T17:39:25.121Z,-2.44
2024-01-25T17:41:52.990Z,-2.47
2024-01-25T17:44:19.686Z,-2.43
2024-01-25T17:46:46.426Z,-2.44
2024-01-25T17:49:13.670Z,-2.47
2024-01-25T17:51:40.449Z,-2.50
2024-01-25T17:54:07.134Z,-2.52
2024-01-25T17:56:37.704Z,-2.62
2024-01-25T17:59:06.357Z,-2.71
2024-01-25T18:01:33.022Z,-2.80
2024-01-25T18:04:00.081Z,-2.85
2024-01-25T18:06:26.937Z,-2.91
2024-01-25T18:08:53.786Z,-2.94
2024-01-25T18:11:20.423Z,-2.93
2024-01-25T18:13:48.798Z,-2.91
2024-01-25T18:16:15.526Z,-3.03
2024-01-25T18:18:42.313Z,-3.06
2024-01-25T18:21:09.531Z,-3.08
2024-01-25T18:23:37.377Z,-3.15
2024-01-25T18:26:04.785Z,-3.16
2024-01-25T18:28:31.426Z,-3.12
2024-01-25T18:30:58.763Z,-3.19
2024-01-25T18:33:25.708Z,-3.20
2024-01-25T18:35:52.722Z,-3.22
2024-01-25T18:38:19.426Z,-3.24
2024-01-25T18:40:46.121Z,-3.25
2024-01-25T18:43:13.383Z,-3.24
2024-01-25T18:45:40.068Z,-3.17
2024-01-25T18:48:07.348Z,-3.16
2024-01-25T18:50:33.989Z,-3.12
2024-01-25T18:53:00.728Z,-3.20
2024-01-25T18:55:27.660Z,-3.20
2024-01-25T18:57:54.545Z,-3.19
2024-01-25T19:00:21.594Z,-3.16
2024-01-25T19:02:48.801Z,-3.18
2024-01-25T19:05:15.943Z,-3.21
2024-01-25T19:07:42.745Z,-3.24
2024-01-25T19:10:09.480Z,-3.28
2024-01-25T19:12:41.858Z,-3.33
2024-01-25T19:15:12.222Z,-3.39
2024-01-25T19:17:39.038Z,-3.34
2024-01-25T19:20:08.387Z,-3.35
2024-01-25T19:22:35.023Z,-3.35
2024-01-25T19:25:02.221Z,-3.38
2024-01-25T19:27:30.640Z,-3.27
2024-01-25T19:29:57.615Z,-3.17
2024-01-25T19:32:24.646Z,-3.10
2024-01-25T19:34:51.415Z,-3.16
2024-01-25T19:37:18.798Z,-3.17
2024-01-25T19:39:48.843Z,-3.20
2024-01-25T19:42:15.579Z,-3.25
2024-01-25T19:44:42.281Z,-3.23
2024-01-25T19:47:08.903Z,-3.26
2024-01-25T19:49:35.643Z,-3.28
2024-01-25T19:52:03.731Z,-3.29
2024-01-25T19:54:31.316Z,-3.37
2024-01-25T19:56:58.545Z,-3.46
2024-01-25T19:59:25.277Z,-3.50
2024-01-25T20:01:52.128Z,-3.55
2024-01-25T20:04:18.919Z,-3.61
2024-01-25T20:06:45.780Z,-3.65
2024-01-25T20:09:12.424Z,-3.68
2024-01-25T20:11:39.049Z,-3.74
2024-01-25T20:14:05.755Z,-3.79
2024-01-25T20:16:32.416Z,-3.84
2024-01-25T20:18:59.532Z,-3.89
2024-01-25T20:21:26.384Z,-3.91
2024-01-25T20:23:53.040Z,-3.91
2024-01-25T20:26:20.909Z,-3.93
2024-01-25T20:28:47.779Z,-3.98
2024-01-25T20:31:16.351Z,-4.00
2024-01-25T20:33:43.205Z,-4.01
2024-01-25T20:36:10.000Z,-4.08
2024-01-25T20:38:36.631Z,-4.08
2024-01-25T20:41:03.328Z,-4.14
2024-01-25T20:43:30.092Z,-4.15
2024-01-25T20:45:57.303Z,-4.14
2024-01-25T20:48:24.156Z,-4.17
2024-01-25T20:50:51.890Z,-4.19
2024-01-25T20:53:18.587Z,-4.26
2024-01-25T20:55:45.197Z,-4.38
2024-01-25T20:58:11.813Z,-4.40
2024-01-25T21:00:40.377Z,-4.39
2024-01-25T21:03:07.838Z,-4.43
2024-01-25T21:05:34.773Z,-4.41
2024-01-25T21:08:02.021Z,-4.41
2024-01-25T21:10:28.808Z,-4.41
2024-01-25T21:12:55.654Z,-4.37
2024-01-25T21:15:22.582Z,-4.35
2024-01-25T21:17:49.402Z,-4.39
2024-01-25T21:20:16.546Z,-4.44
2024-01-25T21:22:43.320Z,-4.49
2024-01-25T21:25:11.962Z,-4.54
2024-01-25T21:27:39.213Z,-4.57
2024-01-25T21:30:06.444Z,-4.58
2024-01-25T21:32:33.098Z,-4.59
2024-01-25T21:35:00.019Z,-4.56
2024-01-25T21:37:29.345Z,-4.58
2024-01-25T21:39:56.225Z,-4.63
2024-01-25T21:42:22.929Z,-4.67
2024-01-25T21:44:49.674Z,-4.70
2024-01-25T21:47:16.755Z,-4.71
2024-01-25T21:49:43.857Z,-4.71
2024-01-25T21:52:10.666Z,-4.72
2024-01-25T21:54:37.579Z,-4.71
2024-01-25T21:57:04.393Z,-4.70
2024-01-25T21:59:31.173Z,-4.68
2024-01-25T22:01:58.985Z,-4.65
2024-01-25T22:04:25.684Z,-4.65
2024-01-25T22:06:52.500Z,-4.66
2024-01-25T22:09:19.561Z,-4.64
2024-01-25T22:11:46.344Z,-4.60
2024-01-25T22:14:12.974Z,-4.66
2024-01-25T22:16:39.674Z,-4.61
2024-01-25T22:19:06.482Z,-4.60
2024-01-25T22:21:36.300Z,-4.60
2024-01-25T22:24:04.115Z,-4.56
2024-01-25T22:26:30.808Z,-4.57
2024-01-25T22:28:57.487Z,-4.55
2024-01-25T22:31:24.180Z,-4.54
2024-01-25T22:33:51.031Z,-4.55
2024-01-25T22:36:17.997Z,-4.55
2024-01-25T22:38:44.642Z,-4.53
2024-01-25T22:41:12.397Z,-4.51
2024-01-25T22:43:39.037Z,-4.49
2024-01-25T22:46:05.772Z,-4.47
2024-01-25T22:48:32.483Z,-4.45
2024-01-25T22:51:04.361Z,-4.41
2024-01-25T22:53:31.498Z,-4.41
2024-01-25T22:55:59.445Z,-4.40
2024-01-25T22:58:26.231Z,-4.35
2024-01-25T23:00:53.400Z,-4.30
2024-01-25T23:03:21.069Z,-4.26
2024-01-25T23:05:49.151Z,-4.24
2024-01-25T23:08:16.002Z,-4.26
2024-01-25T23:10:43.873Z,-4.26
2024-01-25T23:13:10.574Z,-4.23
2024-01-25T23:15:37.436Z,-4.20
2024-01-25T23:18:04.612Z,-4.13
2024-01-25T23:20:31.462Z,-4.15
2024-01-25T23:22:58.163Z,-4.14
2024-01-25T23:25:24.802Z,-4.14
2024-01-25T23:27:51.505Z,-4.14
2024-01-25T23:30:18.205Z,-4.15
2024-01-25T23:32:45.522Z,-5.84
2024-01-25T23:35:12.220Z,-4.14
2024-01-25T23:37:38.887Z,-4.13
2024-01-25T23:40:08.070Z,-4.14
2024-01-25T23:42:35.673Z,-4.15
2024-01-25T23:45:02.542Z,-4.20
2024-01-25T23:47:29.970Z,-4.21
2024-01-25T23:49:56.982Z,-4.20
2024-01-25T23:52:23.870Z,-4.16
2024-01-25T23:54:50.493Z,-4.13
2024-01-25T23:57:18.738Z,-4.07
2024-01-25T23:59:45.527Z,-4.04
